Gore, Virginia
Current Conditions -  °F | °C
As of 7:15 PM on Saturday 25 Oct 2014 (Local Time) from KOKV Reporting Station
Clear Clear  
Wind Chill: 68°   Ceiling: Unl
Heat Index: 68°   Visibility: 10mi
Dew Point: 36°   Wind: 8mph
Humidity: 30%   Direction: 280°W
Pressure: 29.75"   Gusts: 18mph
Location:  39.26°N, 78.33°W
Report Text: KOKV 252315Z AUTO 28007G16KT 10SM CLR 20/02 A2975 RMK AO2
Loading
Personal Weather Stations






























Interactive Weather Map
Tropical Storm Tracking
New forecast layout! Learn more

10-Day Weather Forecast

Advertisements
Track Severe Weather on mobile